Flight Track Log - Related Links

Times and Time Zones

All times are in EDT time to prevent confusion due to time zone crossing. See the N534QS flight status page for this flight to view local times or setup timezone preferences in your user account.

Time Position Orientation Groundspeed Altitude Reporting Facility
EDT Latitude Longitude Course Direction KTS MPH feet Rate Location/Type
Mon 15:28:34 33.4878 -105.3033 87° East 367 422 11,800  Level Albuquerque Center
Mon 15:29:37 33.4608 -105.1708 104° East 379 436 12,000 97 Climbing Albuquerque Center
Mon 15:30:38 33.4319 -105.0458 105° East 389 448 12,000  Level Albuquerque Center
Mon 15:31:40 33.4042 -104.9233 105° East 385 443 12,000 1,113 Level Albuquerque Center
Mon 15:32:42 33.3744 -104.7897 105° East 386 444 14,300 2,683 Climbing Albuquerque Center
Mon 15:33:00 33.2183 -104.7755 111° Southeast  Level Estimated
Mon 15:33:43 33.3456 -104.6619 105° East 396 456 17,500  Level Albuquerque Center
Mon 15:34:45 33.2922 -104.5353 117° Southeast 418 481 20,100 2,323 Climbing Albuquerque Center
Mon 15:35:47 33.2269 -104.4097 122° Southeast 428 493 22,300 2,468 Climbing Albuquerque Center
Mon 15:36:49 33.1542 -104.2758 123° Southeast 452 520 25,200 2,488 Climbing Albuquerque Center
Mon 15:37:50 33.0872 -104.1492 122° Southeast 454 522 27,400 2,049 Climbing Albuquerque Center
Mon 15:38:52 33.0169 -104.0175 122° Southeast 468 539 29,400 1,984 Climbing Albuquerque Center
Mon 15:39:54 32.9400 -103.8733 122° Southeast 477 549 31,500 2,098 Climbing Albuquerque Center
Mon 15:40:55 32.8697 -103.7431 123° Southeast 469 540 33,700 2,049 Climbing Albuquerque Center
Mon 15:41:57 32.8111 -103.6342 123° Southeast 459 528 35,700 2,419 Climbing Albuquerque Center
Mon 15:42:59 32.7267 -103.4842 124° Southeast 456 525 38,700 2,438 Climbing Albuquerque Center
Mon 15:44:05 32.6608 -103.3622 123° Southeast 452 520 40,900 1,095 Climbing Fort Worth Center
Mon 15:45:05 32.5936 -103.2369 122° Southeast 446 513 41,000 50 Climbing Fort Worth Center
Mon 15:46:05 32.5225 -103.1092 123° Southeast 459 528 41,000  Level Fort Worth Center
Mon 15:47:05 32.4489 -102.9817 124° Southeast 464 534 41,000  Level Fort Worth Center
Mon 15:48:05 32.3792 -102.8592 124° Southeast 459 528 41,000  Level Fort Worth Center
Mon 15:49:05 32.3075 -102.7272 123° Southeast 459 528 41,000  Level Fort Worth Center
Mon 15:50:05 32.2336 -102.6000 124° Southeast 459 528 41,000  Level Fort Worth Center
Mon 15:51:05 32.1617 -102.4708 123° Southeast 464 534 41,000  Level Fort Worth Center
Mon 15:52:05 32.0897 -102.3319 121° Southeast 464 534 41,000  Level Fort Worth Center
Mon 15:53:05 32.0197 -102.2033 123° Southeast 464 534 41,000  Level Fort Worth Center
Mon 15:54:05 31.9644 -102.0633 115° Southeast 464 534 41,000  Level Fort Worth Center
Mon 15:55:05 31.9214 -101.9264 110° East 459 528 41,000  Level Fort Worth Center
Mon 15:56:05 31.8742 -101.7847 111° Southeast 459 528 41,000  Level Fort Worth Center
Mon 15:57:05 31.8247 -101.6456 113° Southeast 459 528 41,000  Level Fort Worth Center
Mon 15:58:05 31.7772 -101.5064 112° Southeast 459 528 41,000  Level Fort Worth Center
Mon 15:59:05 31.7292 -101.3700 112° Southeast 454 522 41,000  Level Fort Worth Center
Mon 16:00:05 31.6814 -101.2314 112° Southeast 454 522 41,000  Level Fort Worth Center
Mon 16:01:05 31.6333 -101.0928 112° Southeast 454 522 41,000  Level Fort Worth Center
Mon 16:02:05 31.5850 -100.9567 113° Southeast 454 522 41,000  Level Fort Worth Center
Mon 16:03:05 31.5347 -100.8183 113° Southeast 460 529 41,000  Level Fort Worth Center
Mon 16:04:05 31.4861 -100.6825 113° Southeast 460 529 41,000  Level Fort Worth Center
Mon 16:05:05 31.4431 -100.5664 113° Southeast 454 522 41,000  Level Fort Worth Center
Mon 16:06:41 31.3697 -100.3522 112° Southeast 458 527 41,000  Level Houston Center
Mon 16:07:43 31.3206 -100.2164 113° Southeast 453 521 41,000  Level Houston Center
Mon 16:08:45 31.2628 -100.0531 112° Southeast 452 520 41,000  Level Houston Center
Mon 16:10:00 31.1966 -99.9074 113° Southeast  Level FlightAware Approximate
Mon 16:10:49 31.1631 -99.7819 113° Southeast 454 522 41,000  Level Houston Center
Mon 16:11:50 31.1136 -99.6453 113° Southeast 455 524 41,000  Level Houston Center
Mon 16:12:52 31.0636 -99.5072 113° Southeast 459 528 41,000  Level Houston Center
Mon 16:13:54 31.0133 -99.3694 113° Southeast 462 532 41,000  Level Houston Center
Mon 16:14:56 30.9622 -99.2331 114° Southeast 459 528 41,000  Level Houston Center
Mon 16:15:58 30.9050 -99.0789 113° Southeast 459 528 41,000  Level Houston Center
Mon 16:17:00 30.8542 -98.9392 113° Southeast 464 534 41,000  Level Houston Center
Mon 16:18:02 30.8028 -98.8008 113° Southeast 463 533 41,000  Level Houston Center
Mon 16:19:03 30.7836 -98.6528 99° East 462 532 41,000 -244 Level Houston Center
Mon 16:20:05 30.7675 -98.4778 96° East 462 532 40,500 -1,113 Descending Houston Center
Mon 16:21:07 30.7533 -98.3314 96° East 455 524 38,700 -1,694 Descending Houston Center
Mon 16:22:09 30.7383 -98.1792 97° East 468 539 37,000 -823 Descending Houston Center
Mon 16:23:11 30.7233 -98.0261 96° East 474 545 37,000  Level Houston Center
Mon 16:24:13 30.7086 -97.8719 96° East 476 548 37,000 -823 Level Houston Center
Mon 16:25:15 30.6931 -97.7156 97° East 483 556 35,300 -1,951 Descending Houston Center
Mon 16:26:16 30.6767 -97.5592 97° East 487 560 33,000 -2,390 Descending Houston Center
Mon 16:27:18 30.6575 -97.3783 97° East 485 558 30,400 -2,323 Descending Houston Center
Mon 16:28:20 30.6425 -97.2258 96° East 479 551 28,200 -2,032 Descending Houston Center
Mon 16:29:22 30.6292 -97.0867 96° East 438 504 26,200 -2,032 Descending Houston Center
Mon 16:30:24 30.6147 -96.9553 97° East 412 474 24,000 -2,032 Descending Houston Center
Mon 16:31:26 30.5719 -96.8300 112° Southeast 418 481 22,000 -1,935 Descending Houston Center
Mon 16:32:28 30.5081 -96.7222 125° Southeast 403 464 20,000 -1,935 Descending Houston Center
Mon 16:33:30 30.4442 -96.6117 124° Southeast 408 470 18,000 -1,935 Descending Houston Center
Mon 16:34:32 30.3714 -96.4883 124° Southeast 397 457 16,000 -1,962 Descending Houston Center
Mon 16:35:14 30.3283 -96.4169 125° Southeast 386 444 14,600 -1,891 Descending Houston Center
Mon 16:36:04 30.2817 -96.3350 123° Southeast 377 434 13,100 -1,704 Descending Houston Center
Mon 16:36:35 30.2525 -96.2853 124° Southeast 376 433 12,300 -1,355 Descending Houston Center
Mon 16:37:37 30.1842 -96.1975 132° Southeast 366 421 11,000 -629 Descending Houston Center
Mon 16:38:39 30.0889 -96.1356 151° Southeast 356 410 11,000 -532 Level Houston Center
Mon 16:39:41 30.0253 -96.0683 138° Southeast 314 361 9,900 -1,355 Descending Houston Center
Mon 16:40:43 29.9947 -95.9931 115° Southeast 291 335 8,200 -1,597 Descending Houston Center
Mon 16:41:45 29.9656 -95.9086 112° Southeast 283 326 6,600 -1,370 Descending Houston Center
Mon 16:42:15 29.9444 -95.8519 113° Southeast 276 318 6,100 -581 Descending Houston Center
Mon 16:42:47 29.9303 -95.8114 112° Southeast 275 316 6,000 -64 Descending Houston Center
Mon 16:43:49 29.9008 -95.7308 113° Southeast 273 314 6,000  Level Houston Center
Mon 16:44:52 29.8719 -95.6522 113° Southeast 269 310 6,000 -581 Level Houston Center
Mon 16:45:53 29.8453 -95.5775 112° Southeast 258 297 4,800 -976 Descending Houston Center
Mon 16:46:55 29.8203 -95.5092 113° Southeast 240 276 4,000 -387 Descending Houston Center
Mon 16:47:57 29.7967 -95.4569 118° Southeast 195 224 4,000 -484 Level Houston Center
Mon 16:48:59 29.7542 -95.4094 136° Southeast 181 208 3,000 -968 Descending Houston Center
Mon 16:50:01 29.7189 -95.3672 134° Southeast 182 209 2,000 -871 Descending Houston Center
Mon 16:51:03 29.6872 -95.3289 134° Southeast 176 203 1,200 -734 Descending Houston Center
Mon 16:52:20 29.6544 -95.2892 134° Southeast 118 136 300 -532 Descending Houston Center
Mon 16:53:07 29.6392 -95.2722 136° Southeast 131 151 100 -255 Descending Houston Center

Login

Don't have an account? Register now (free) for customized features, flight alerts, and more!